createdAt,value
2022-08-21T20:23:37.608Z,99181.72
2022-08-21T20:26:17.682Z,99173.38
2022-08-21T20:28:50.551Z,99166.69
2022-08-21T20:31:20.857Z,99172.03
2022-08-21T20:33:50.862Z,99164.84
2022-08-21T20:36:21.330Z,99157.13
2022-08-21T20:38:52.319Z,99156.91
2022-08-21T20:41:30.307Z,99157.22
2022-08-21T20:44:00.406Z,99150.03
2022-08-21T20:46:31.008Z,99143.47
2022-08-21T20:49:00.436Z,99153.84
2022-08-21T20:51:36.979Z,99142.81
2022-08-21T20:54:14.323Z,99142.28
2022-08-21T20:56:49.668Z,99145.84
2022-08-21T20:59:46.169Z,99145.31
2022-08-21T21:02:41.383Z,99143.78
2022-08-21T21:05:15.595Z,99141.41
2022-08-21T21:07:57.290Z,99143.38
2022-08-21T21:10:32.425Z,99143.38
2022-08-21T21:13:06.673Z,99134.88
2022-08-21T21:15:36.897Z,99134.75
2022-08-21T21:18:14.362Z,99134.44
2022-08-21T21:20:51.245Z,99132.44
2022-08-21T21:23:26.678Z,99139.31
2022-08-21T21:26:07.032Z,99125.09
2022-08-21T21:28:49.939Z,99137.41
2022-08-21T21:31:19.212Z,99132.06
2022-08-21T21:33:49.087Z,99135.28
2022-08-21T21:36:28.819Z,99146.78
2022-08-21T21:39:09.624Z,99140.09
2022-08-21T21:41:47.377Z,99146.72
2022-08-21T21:44:48.572Z,99140.69
2022-08-21T21:47:27.471Z,99136.53
2022-08-21T21:50:18.922Z,99128.66
2022-08-21T21:53:03.940Z,99138.31
2022-08-21T21:56:00.612Z,99136.63
2022-08-21T21:58:40.224Z,99132.22
2022-08-21T22:01:16.735Z,99125.50
2022-08-21T22:03:54.255Z,99123.19
2022-08-21T22:06:31.858Z,99128.81
2022-08-21T22:09:09.294Z,99127.25
2022-08-21T22:11:56.093Z,99125.22
2022-08-21T22:14:33.927Z,99129.03
2022-08-21T22:17:08.484Z,99124.69
2022-08-21T22:19:42.680Z,99127.34
2022-08-21T22:22:17.586Z,99127.34
2022-08-21T22:24:49.770Z,99132.09
2022-08-21T22:27:22.087Z,99126.41
2022-08-21T22:29:53.730Z,99123.75
2022-08-21T22:32:27.912Z,99120.66
2022-08-21T22:35:05.187Z,99117.44
2022-08-21T22:37:40.140Z,99126.16
2022-08-21T22:40:10.728Z,99127.81
2022-08-21T22:42:39.292Z,99118.81
2022-08-21T22:45:12.474Z,99129.47
2022-08-21T22:47:46.065Z,99124.16
2022-08-21T22:50:22.087Z,99127.72
2022-08-21T22:52:55.243Z,99116.31
2022-08-21T22:58:23.836Z,99113.47
2022-08-21T23:00:59.892Z,99110.97
2022-08-21T23:03:34.560Z,99108.00
2022-08-21T23:08:54.245Z,99105.72
2022-08-21T23:11:27.886Z,99105.25
2022-08-21T23:13:57.058Z,99102.88
2022-08-21T23:16:38.246Z,99102.88
2022-08-21T23:19:22.152Z,99105.72
2022-08-21T23:22:04.543Z,99099.00
2022-08-21T23:24:49.764Z,99095.28
2022-08-21T23:27:35.755Z,99096.91
2022-08-21T23:30:08.540Z,99091.56
2022-08-21T23:33:00.770Z,99091.19
2022-08-21T23:38:54.074Z,99093.72
2022-08-21T23:41:34.746Z,99092.41
2022-08-21T23:44:19.252Z,99093.53
2022-08-21T23:47:02.280Z,99095.53
2022-08-21T23:49:44.168Z,99095.00
2022-08-21T23:52:25.484Z,99095.44
2022-08-21T23:55:15.164Z,99099.78
2022-08-21T23:57:57.211Z,99089.41
